Preview of NWS' New Version of Forecast
This preview is not operational and should not be used for support decisions.

Terminal Aerodrome Forecast (TAF)

Issued by National Weather Service (NWS)

                            
000
FTUS43 KDMX 180614 AAC
TAFALO
TAF AMD
KALO 180614Z 1806/1906 13011KT P6SM SCT028 BKN050
     FM180900 16008G16KT P6SM TSRA BKN025CB OVC120
     FM181100 18007KT 5SM -TSRA BR OVC025CB
      TEMPO 1811/1812 2SM BR OVC015
     FM181200 21008KT P6SM BKN100
     FM182300 32007KT P6SM SCT080=